createdAt,value
2023-01-29T00:01:33.047Z,24.87
2023-01-29T00:04:02.992Z,24.86
2023-01-29T00:06:33.760Z,24.85
2023-01-29T00:09:07.016Z,24.82
2023-01-29T00:11:38.265Z,24.81
2023-01-29T00:14:09.052Z,24.80
2023-01-29T00:16:39.051Z,24.80
2023-01-29T00:19:09.838Z,24.78
2023-01-29T00:21:39.489Z,24.77
2023-01-29T00:24:12.245Z,24.75
2023-01-29T00:26:43.573Z,24.73
2023-01-29T00:29:14.137Z,24.72
2023-01-29T00:31:47.721Z,24.71
2023-01-29T00:34:17.847Z,24.70
2023-01-29T00:36:48.149Z,24.70
2023-01-29T00:39:31.413Z,24.69
2023-01-29T00:42:23.154Z,24.67
2023-01-29T00:45:03.331Z,24.66
2023-01-29T00:47:34.017Z,24.65
2023-01-29T00:50:05.911Z,24.65
2023-01-29T00:52:36.912Z,24.64
2023-01-29T00:55:11.868Z,24.63
2023-01-29T00:57:42.725Z,24.61
2023-01-29T01:00:17.417Z,24.61
2023-01-29T01:03:04.959Z,24.60
2023-01-29T01:05:35.575Z,24.58
2023-01-29T01:08:26.848Z,24.58
2023-01-29T01:11:05.343Z,24.56
2023-01-29T01:13:36.503Z,24.54
2023-01-29T01:16:13.309Z,24.52
2023-01-29T01:18:44.122Z,24.51
2023-01-29T01:21:14.201Z,24.50
2023-01-29T01:23:44.362Z,24.49
2023-01-29T01:26:15.819Z,24.47
2023-01-29T01:28:46.097Z,24.42
2023-01-29T01:31:18.604Z,24.37
2023-01-29T01:33:48.684Z,24.31
2023-01-29T01:36:18.831Z,24.26
2023-01-29T01:38:49.163Z,24.22
2023-01-29T01:41:23.268Z,24.20
2023-01-29T01:43:57.864Z,24.17
2023-01-29T01:46:32.038Z,24.14
2023-01-29T01:49:08.154Z,24.12
2023-01-29T01:51:45.103Z,24.09
2023-01-29T01:54:22.100Z,24.08
2023-01-29T01:57:05.284Z,24.06
2023-01-29T01:59:37.882Z,24.04
2023-01-29T02:02:26.749Z,24.04
2023-01-29T02:05:13.673Z,24.03
2023-01-29T02:08:05.723Z,24.01
2023-01-29T02:10:44.590Z,24.00
2023-01-29T02:13:19.028Z,24.01
2023-01-29T02:15:49.974Z,23.99
2023-01-29T02:18:23.535Z,23.99
2023-01-29T02:21:25.653Z,23.96
2023-01-29T02:24:34.720Z,23.94
2023-01-29T02:27:16.247Z,23.93
2023-01-29T02:30:04.774Z,23.93
2023-01-29T02:32:54.952Z,23.90
2023-01-29T02:35:33.841Z,23.86
2023-01-29T02:38:24.133Z,23.83
2023-01-29T02:41:00.896Z,23.79
2023-01-29T02:43:41.204Z,23.78
2023-01-29T02:46:23.769Z,23.78
2023-01-29T02:49:08.088Z,23.77
2023-01-29T02:51:46.968Z,23.76
2023-01-29T02:54:26.123Z,23.75
2023-01-29T02:57:02.725Z,23.73
2023-01-29T02:59:42.034Z,23.74
2023-01-29T03:02:22.373Z,23.75
2023-01-29T03:05:06.649Z,23.75
2023-01-29T03:07:45.253Z,23.75
2023-01-29T03:10:23.330Z,23.74
2023-01-29T03:13:01.062Z,23.73
2023-01-29T03:15:43.158Z,23.73
2023-01-29T03:18:20.630Z,23.74
2023-01-29T03:20:59.349Z,23.74
2023-01-29T03:23:50.951Z,23.73
2023-01-29T03:26:41.251Z,23.70
2023-01-29T03:29:31.498Z,23.66
2023-01-29T03:32:07.909Z,23.62
2023-01-29T03:34:46.297Z,23.60
2023-01-29T03:37:24.691Z,23.58
2023-01-29T03:39:55.907Z,23.59
2023-01-29T03:42:32.032Z,23.59
2023-01-29T03:45:15.879Z,23.59
2023-01-29T03:47:52.668Z,23.60
2023-01-29T03:50:39.079Z,23.62
2023-01-29T03:53:21.153Z,23.63
2023-01-29T03:56:01.556Z,23.63
2023-01-29T03:58:44.977Z,23.65
2023-01-29T04:01:23.158Z,23.64
2023-01-29T04:04:04.324Z,23.65
2023-01-29T04:06:43.393Z,23.64
2023-01-29T04:09:22.683Z,23.63
2023-01-29T04:12:03.293Z,23.62
2023-01-29T04:14:35.062Z,23.62
2023-01-29T04:17:14.937Z,23.61
2023-01-29T04:19:45.770Z,23.60
2023-01-29T04:22:25.078Z,23.60
2023-01-29T04:24:55.156Z,23.55
2023-01-29T04:27:37.543Z,23.52
2023-01-29T04:30:26.292Z,23.50
2023-01-29T04:33:19.366Z,23.47
2023-01-29T04:36:11.995Z,23.44
2023-01-29T04:39:01.598Z,23.41
2023-01-29T04:41:40.096Z,23.38
2023-01-29T04:44:23.273Z,23.37
2023-01-29T04:47:06.946Z,23.35
2023-01-29T04:49:48.047Z,23.34
2023-01-29T04:52:38.448Z,23.32
2023-01-29T04:55:22.990Z,23.29
2023-01-29T04:58:05.886Z,23.25
2023-01-29T05:00:41.005Z,23.21
2023-01-29T05:03:14.395Z,23.19
2023-01-29T05:05:49.424Z,23.20
2023-01-29T05:08:24.364Z,23.19
2023-01-29T05:11:00.193Z,23.17
2023-01-29T05:13:34.689Z,23.16
2023-01-29T05:16:11.446Z,23.12
2023-01-29T05:18:41.442Z,23.10
2023-01-29T05:21:12.236Z,23.10
2023-01-29T05:23:59.777Z,23.10
2023-01-29T05:26:48.591Z,23.09
2023-01-29T05:29:18.514Z,23.06
2023-01-29T05:31:48.825Z,23.06
2023-01-29T05:34:19.106Z,23.09
2023-01-29T05:36:49.359Z,23.10
2023-01-29T05:39:20.014Z,23.14
2023-01-29T05:41:52.308Z,23.19
2023-01-29T05:44:22.732Z,23.28
2023-01-29T05:46:53.829Z,23.38
2023-01-29T05:49:24.441Z,23.49
2023-01-29T05:51:54.483Z,23.64
2023-01-29T05:54:24.461Z,23.79
2023-01-29T05:56:56.669Z,23.93
2023-01-29T05:59:26.459Z,24.05
2023-01-29T06:01:56.584Z,24.20
2023-01-29T06:04:26.966Z,24.35
2023-01-29T06:07:03.461Z,24.52
2023-01-29T06:09:33.263Z,24.70
2023-01-29T06:12:06.675Z,24.92
2023-01-29T06:14:37.131Z,25.10
2023-01-29T06:17:07.408Z,25.31
2023-01-29T06:19:37.205Z,25.54
2023-01-29T06:22:07.131Z,25.76
2023-01-29T06:24:36.918Z,25.94
2023-01-29T06:27:09.297Z,26.12
2023-01-29T06:29:39.802Z,26.29
2023-01-29T06:32:10.106Z,26.46
2023-01-29T06:34:40.251Z,26.60
2023-01-29T06:37:11.141Z,26.73
2023-01-29T06:39:40.960Z,26.79
2023-01-29T06:42:12.240Z,26.75
2023-01-29T06:44:42.584Z,26.68
2023-01-29T06:47:12.845Z,26.62
2023-01-29T06:49:42.961Z,26.54
2023-01-29T06:52:13.166Z,26.46
2023-01-29T06:54:43.108Z,26.39
2023-01-29T06:57:15.330Z,26.34
2023-01-29T06:59:48.062Z,26.34
2023-01-29T07:02:18.764Z,26.36
2023-01-29T07:04:49.167Z,26.44
2023-01-29T07:07:19.455Z,26.57
2023-01-29T07:09:49.883Z,26.69
2023-01-29T07:12:22.232Z,26.78
2023-01-29T07:14:52.753Z,26.86
2023-01-29T07:17:22.417Z,26.96
2023-01-29T07:19:52.493Z,27.06
2023-01-29T07:22:22.306Z,27.15
2023-01-29T07:24:52.923Z,27.23
2023-01-29T07:27:25.103Z,27.31
2023-01-29T07:29:55.337Z,27.36
2023-01-29T07:32:25.457Z,27.44
2023-01-29T07:34:55.775Z,27.53
2023-01-29T07:37:26.112Z,27.61
2023-01-29T07:39:55.840Z,27.69
2023-01-29T07:42:28.233Z,27.71
2023-01-29T07:44:58.442Z,27.76
2023-01-29T07:47:28.869Z,27.80
2023-01-29T07:49:59.242Z,27.82
2023-01-29T07:52:29.638Z,27.81
2023-01-29T07:55:00.174Z,27.83
2023-01-29T07:57:31.992Z,27.90
2023-01-29T08:00:02.020Z,27.95
2023-01-29T08:02:32.330Z,27.98
2023-01-29T08:05:02.679Z,28.02
2023-01-29T08:07:32.947Z,28.07
2023-01-29T08:10:03.279Z,28.07
2023-01-29T08:12:35.334Z,28.06
2023-01-29T08:15:06.102Z,28.01
2023-01-29T08:20:33.681Z,28.01
2023-01-29T08:23:05.220Z,28.08
2023-01-29T08:25:37.023Z,28.16
2023-01-29T08:28:10.086Z,28.27
2023-01-29T08:30:40.946Z,28.36
2023-01-29T08:33:11.314Z,28.44
2023-01-29T08:35:41.636Z,28.51
2023-01-29T08:38:13.084Z,28.57
2023-01-29T08:40:43.264Z,28.59
2023-01-29T08:43:16.301Z,28.58
2023-01-29T08:45:46.904Z,28.56
2023-01-29T08:48:17.156Z,28.55
2023-01-29T08:50:47.498Z,28.57
2023-01-29T08:53:19.914Z,28.59
2023-01-29T08:55:50.323Z,28.61
2023-01-29T08:58:22.335Z,28.63
2023-01-29T09:00:53.131Z,28.63
2023-01-29T09:03:22.905Z,28.62
2023-01-29T09:05:52.735Z,28.61
2023-01-29T09:08:23.144Z,28.61
2023-01-29T09:10:53.506Z,28.60
2023-01-29T09:13:25.509Z,28.62
2023-01-29T09:15:55.510Z,28.63
2023-01-29T09:18:26.544Z,28.63
2023-01-29T09:20:56.597Z,28.64
2023-01-29T09:23:27.219Z,28.63
2023-01-29T09:25:57.003Z,28.64
2023-01-29T09:28:30.081Z,28.66
2023-01-29T09:31:03.885Z,28.67
2023-01-29T09:33:34.272Z,28.65
2023-01-29T09:36:06.053Z,28.60
2023-01-29T09:38:35.961Z,28.53
2023-01-29T09:41:23.785Z,28.48
2023-01-29T09:44:02.095Z,28.38
2023-01-29T09:46:43.193Z,28.34
2023-01-29T09:49:23.243Z,28.30
2023-01-29T09:51:59.580Z,28.25
2023-01-29T09:54:38.308Z,28.22
2023-01-29T09:57:16.217Z,28.22
2023-01-29T09:59:48.664Z,28.21
2023-01-29T10:02:52.958Z,28.19
2023-01-29T10:05:40.171Z,28.16
2023-01-29T10:08:44.167Z,28.13
2023-01-29T10:11:30.138Z,28.11
2023-01-29T10:14:16.473Z,28.07
2023-01-29T10:17:10.712Z,28.03
2023-01-29T10:20:22.313Z,27.99
2023-01-29T10:23:07.445Z,27.98
2023-01-29T10:25:44.108Z,27.96
2023-01-29T10:28:22.600Z,27.92
2023-01-29T10:30:57.234Z,27.88
2023-01-29T10:33:49.256Z,27.86
2023-01-29T10:36:39.243Z,27.82
2023-01-29T10:39:19.129Z,27.78
2023-01-29T10:42:08.266Z,27.75
2023-01-29T10:44:55.929Z,27.72
2023-01-29T10:48:37.852Z,27.67
2023-01-29T10:51:28.386Z,27.64
2023-01-29T10:54:21.783Z,27.63
2023-01-29T10:57:12.683Z,27.62
2023-01-29T11:00:02.148Z,27.63
2023-01-29T11:02:32.175Z,27.61
2023-01-29T11:05:02.278Z,27.60
2023-01-29T11:07:34.597Z,27.61
2023-01-29T11:10:16.911Z,27.59
2023-01-29T11:12:48.868Z,27.56
2023-01-29T11:15:26.549Z,27.54
2023-01-29T11:18:10.999Z,27.52
2023-01-29T11:20:41.249Z,27.47
2023-01-29T11:23:29.613Z,27.43
2023-01-29T11:26:02.160Z,27.37
2023-01-29T11:28:41.757Z,27.34
2023-01-29T11:31:31.868Z,27.31
2023-01-29T11:34:09.192Z,27.29
2023-01-29T11:36:41.604Z,27.30
2023-01-29T11:39:23.934Z,27.29
2023-01-29T11:41:59.767Z,27.29
2023-01-29T11:44:37.056Z,27.28
2023-01-29T11:47:24.405Z,27.26
2023-01-29T11:49:58.063Z,27.24
2023-01-29T11:52:38.373Z,27.21
2023-01-29T11:55:22.150Z,27.19
2023-01-29T11:57:59.701Z,27.16
2023-01-29T12:00:34.010Z,27.13
2023-01-29T12:03:14.521Z,27.14
2023-01-29T12:05:57.028Z,27.14
2023-01-29T12:08:27.523Z,27.14
2023-01-29T12:11:12.872Z,27.14
2023-01-29T12:13:45.536Z,27.12
2023-01-29T12:16:25.807Z,27.10
2023-01-29T12:19:08.565Z,27.06
2023-01-29T12:21:49.929Z,27.05
2023-01-29T12:24:36.033Z,27.03
2023-01-29T12:27:20.659Z,27.00
2023-01-29T12:29:58.684Z,26.98
2023-01-29T12:32:41.266Z,26.96
2023-01-29T12:35:23.649Z,26.93
2023-01-29T12:38:03.325Z,26.90
2023-01-29T12:40:41.606Z,26.86
2023-01-29T12:43:20.388Z,26.82
2023-01-29T12:45:58.306Z,26.80
2023-01-29T12:48:35.592Z,26.77
2023-01-29T12:51:11.894Z,26.75
2023-01-29T12:53:50.438Z,26.74
2023-01-29T12:56:32.034Z,26.71
2023-01-29T12:59:17.996Z,26.69
2023-01-29T13:01:56.004Z,26.67
2023-01-29T13:04:40.995Z,26.68
2023-01-29T13:07:20.884Z,26.67
2023-01-29T13:09:57.307Z,26.67
2023-01-29T13:12:28.756Z,26.65
2023-01-29T13:15:06.649Z,26.62
2023-01-29T13:17:43.604Z,26.60
2023-01-29T13:20:21.983Z,26.57
2023-01-29T13:22:57.048Z,26.56
2023-01-29T13:25:27.651Z,26.55
2023-01-29T13:27:58.313Z,26.52
2023-01-29T13:30:38.029Z,26.50
2023-01-29T13:33:12.826Z,26.46
2023-01-29T13:35:47.695Z,26.46
2023-01-29T13:38:30.432Z,26.44
2023-01-29T13:41:06.664Z,26.42
2023-01-29T13:43:42.231Z,26.41
2023-01-29T13:46:21.796Z,26.36
2023-01-29T13:48:58.602Z,26.35
2023-01-29T13:51:39.723Z,26.32
2023-01-29T13:54:20.141Z,26.29
2023-01-29T13:57:02.004Z,26.26
2023-01-29T13:59:56.742Z,26.23
2023-01-29T14:02:31.952Z,26.22
2023-01-29T14:05:43.316Z,26.19
2023-01-29T14:08:48.368Z,26.16
2023-01-29T14:11:38.338Z,26.13
2023-01-29T14:14:53.384Z,26.12
2023-01-29T14:17:24.441Z,26.09
2023-01-29T14:20:21.350Z,26.08
2023-01-29T14:23:00.824Z,26.07
2023-01-29T14:25:35.448Z,26.05
2023-01-29T14:28:16.812Z,26.05
2023-01-29T14:30:51.680Z,26.04
2023-01-29T14:33:36.012Z,26.03
2023-01-29T14:36:16.759Z,26.02
2023-01-29T14:38:53.883Z,26.01
2023-01-29T14:41:31.783Z,26.00
2023-01-29T14:45:05.640Z,25.97
2023-01-29T14:48:21.968Z,25.92
2023-01-29T14:51:09.663Z,25.88
2023-01-29T14:54:06.311Z,25.86
2023-01-29T14:56:42.456Z,25.83
2023-01-29T14:59:24.666Z,25.82
2023-01-29T15:01:58.495Z,25.81
2023-01-29T15:04:33.563Z,25.80
2023-01-29T15:07:14.893Z,25.80
2023-01-29T15:10:01.292Z,25.78
2023-01-29T15:12:44.806Z,25.77
2023-01-29T15:15:23.127Z,25.77
2023-01-29T15:18:03.999Z,25.77
2023-01-29T15:20:37.843Z,25.74
2023-01-29T15:23:28.980Z,25.74
2023-01-29T15:26:04.189Z,25.71
2023-01-29T15:28:37.137Z,25.69
2023-01-29T15:31:14.921Z,25.66
2023-01-29T15:33:49.677Z,25.66
2023-01-29T15:36:26.178Z,25.63
2023-01-29T15:39:19.597Z,25.61
2023-01-29T15:41:53.973Z,25.58
2023-01-29T15:44:25.830Z,25.54
2023-01-29T15:46:59.675Z,25.50
2023-01-29T15:49:40.456Z,25.48
2023-01-29T15:52:20.510Z,25.45
2023-01-29T15:54:51.238Z,25.41
2023-01-29T15:57:34.601Z,25.42
2023-01-29T16:00:07.048Z,25.39
2023-01-29T16:02:43.688Z,25.36
2023-01-29T16:05:21.024Z,25.32
2023-01-29T16:07:53.604Z,25.30
2023-01-29T16:10:26.597Z,25.28
2023-01-29T16:12:59.510Z,25.27
2023-01-29T16:15:36.339Z,25.27
2023-01-29T16:18:22.939Z,25.27
2023-01-29T16:20:57.118Z,25.25
2023-01-29T16:23:31.585Z,25.25
2023-01-29T16:26:08.748Z,25.24
2023-01-29T16:28:46.190Z,25.23
2023-01-29T16:31:23.709Z,25.23
2023-01-29T16:33:54.336Z,25.22
2023-01-29T16:36:27.972Z,25.22
2023-01-29T16:39:02.230Z,25.18
2023-01-29T16:41:36.320Z,25.18
2023-01-29T16:44:37.557Z,25.16
2023-01-29T16:47:17.566Z,25.14
2023-01-29T16:49:53.518Z,25.12
2023-01-29T16:52:28.693Z,25.10
2023-01-29T16:55:23.131Z,25.08
2023-01-29T16:57:58.262Z,25.06
2023-01-29T17:00:34.550Z,25.06
2023-01-29T17:03:09.658Z,25.06
2023-01-29T17:05:41.274Z,25.05
2023-01-29T17:08:20.930Z,25.04
2023-01-29T17:10:51.589Z,25.04
2023-01-29T17:13:30.157Z,25.03
2023-01-29T17:16:18.947Z,25.02
2023-01-29T17:18:48.742Z,24.99
2023-01-29T17:21:19.058Z,24.98
2023-01-29T17:23:48.732Z,24.97
2023-01-29T17:26:19.793Z,24.96
2023-01-29T17:28:53.591Z,24.96
2023-01-29T17:31:25.912Z,24.95
2023-01-29T17:33:55.709Z,24.94
2023-01-29T17:36:26.141Z,24.92
2023-01-29T17:38:56.319Z,24.92
2023-01-29T17:41:31.414Z,24.92
2023-01-29T17:44:01.204Z,24.90
2023-01-29T17:46:33.114Z,24.93
2023-01-29T17:49:04.886Z,24.91
2023-01-29T17:51:34.750Z,24.92
2023-01-29T17:54:05.183Z,24.92
2023-01-29T17:56:35.775Z,24.93
2023-01-29T17:59:15.586Z,24.92
2023-01-29T18:01:48.655Z,24.92
2023-01-29T18:04:20.097Z,24.91
2023-01-29T18:06:53.748Z,24.92
2023-01-29T18:09:25.082Z,24.92
2023-01-29T18:11:55.978Z,24.93
2023-01-29T18:14:26.116Z,24.92
2023-01-29T18:16:58.269Z,24.91
2023-01-29T18:19:31.609Z,24.90
2023-01-29T18:22:02.214Z,24.89
2023-01-29T18:24:32.574Z,24.89
2023-01-29T18:27:02.276Z,24.89
2023-01-29T18:29:32.682Z,24.89
2023-01-29T18:32:04.919Z,24.90
2023-01-29T18:34:35.046Z,24.90
2023-01-29T18:37:04.794Z,24.90
2023-01-29T18:39:35.138Z,24.90
2023-01-29T18:42:06.099Z,24.89
2023-01-29T18:44:36.781Z,24.89
2023-01-29T18:47:08.971Z,24.88
2023-01-29T18:49:39.557Z,24.86
2023-01-29T18:52:10.986Z,24.86
2023-01-29T18:54:42.204Z,24.85
2023-01-29T18:57:15.016Z,24.85
2023-01-29T19:00:03.261Z,24.84
2023-01-29T19:02:36.869Z,24.85
2023-01-29T19:05:08.198Z,24.84
2023-01-29T19:07:38.762Z,24.84
2023-01-29T19:10:13.010Z,24.82
2023-01-29T19:12:43.548Z,24.82
2023-01-29T19:15:15.356Z,24.81
2023-01-29T19:17:48.464Z,24.81
2023-01-29T19:20:19.741Z,24.80
2023-01-29T19:22:51.320Z,24.80
2023-01-29T19:25:22.291Z,24.78
2023-01-29T19:27:52.636Z,24.76
2023-01-29T19:30:23.161Z,24.73
2023-01-29T19:32:57.867Z,24.72
2023-01-29T19:35:29.293Z,24.70
2023-01-29T19:37:59.662Z,24.70
2023-01-29T19:40:30.271Z,24.70
2023-01-29T19:43:00.874Z,24.69
2023-01-29T19:45:49.182Z,24.69
2023-01-29T19:48:22.117Z,24.68
2023-01-29T19:50:56.779Z,24.67
2023-01-29T19:53:27.408Z,24.65
2023-01-29T19:56:03.355Z,24.64
2023-01-29T19:58:35.391Z,24.64
2023-01-29T20:01:08.683Z,24.62
2023-01-29T20:03:42.277Z,24.62
2023-01-29T20:06:12.679Z,24.59
2023-01-29T20:08:42.828Z,24.58
2023-01-29T20:11:15.212Z,24.58
2023-01-29T20:13:46.398Z,24.57
2023-01-29T20:16:16.816Z,24.55
2023-01-29T20:18:48.743Z,24.55
2023-01-29T20:21:21.585Z,24.54
2023-01-29T20:23:53.416Z,24.53
2023-01-29T20:26:24.174Z,24.54
2023-01-29T20:28:54.598Z,24.53
2023-01-29T20:31:25.011Z,24.52
2023-01-29T20:33:56.984Z,24.48
2023-01-29T20:36:27.465Z,24.46
2023-01-29T20:38:57.585Z,24.43
2023-01-29T20:41:28.633Z,24.41
2023-01-29T20:43:58.615Z,24.37
2023-01-29T20:46:29.070Z,24.35
2023-01-29T20:49:01.475Z,24.32
2023-01-29T20:51:31.849Z,24.29
2023-01-29T20:54:02.434Z,24.26
2023-01-29T20:56:36.732Z,24.23
2023-01-29T20:59:15.240Z,24.20
2023-01-29T21:01:46.628Z,24.18
2023-01-29T21:04:18.892Z,24.17
2023-01-29T21:06:48.625Z,24.17
2023-01-29T21:09:18.403Z,24.15
2023-01-29T21:11:48.844Z,24.13
2023-01-29T21:14:19.310Z,24.13
2023-01-29T21:16:49.750Z,24.13
2023-01-29T21:19:21.632Z,24.12
2023-01-29T21:21:51.335Z,24.11
2023-01-29T21:24:21.636Z,24.09
2023-01-29T21:26:51.436Z,24.07
2023-01-29T21:29:21.769Z,24.04
2023-01-29T21:31:51.731Z,24.00
2023-01-29T21:34:23.738Z,23.97
2023-01-29T21:36:54.670Z,23.95
2023-01-29T21:39:27.465Z,23.91
2023-01-29T21:42:14.383Z,23.89
2023-01-29T21:44:44.499Z,23.86
2023-01-29T21:47:15.032Z,23.85
2023-01-29T21:49:47.299Z,23.84
2023-01-29T21:52:18.484Z,23.82
2023-01-29T21:54:49.287Z,23.80
2023-01-29T21:57:19.686Z,23.79
2023-01-29T21:59:52.830Z,23.80
2023-01-29T22:02:26.819Z,23.80
2023-01-29T22:05:19.736Z,23.80
2023-01-29T22:07:51.210Z,23.78
2023-01-29T22:10:22.182Z,23.77
2023-01-29T22:12:52.837Z,23.73
2023-01-29T22:15:24.096Z,23.71
2023-01-29T22:17:54.949Z,23.68
2023-01-29T22:20:30.535Z,23.65
2023-01-29T22:23:01.850Z,23.63
2023-01-29T22:25:32.727Z,23.62
2023-01-29T22:28:02.733Z,23.62
2023-01-29T22:30:32.776Z,23.59
2023-01-29T22:33:03.495Z,23.58
2023-01-29T22:35:36.040Z,23.57
2023-01-29T22:38:06.870Z,23.56
2023-01-29T22:40:37.819Z,23.54
2023-01-29T22:43:08.476Z,23.51
2023-01-29T22:45:42.828Z,23.50
2023-01-29T22:48:13.309Z,23.50
2023-01-29T22:50:53.338Z,23.51
2023-01-29T22:53:23.310Z,23.49
2023-01-29T22:55:57.437Z,23.49
2023-01-29T22:58:27.886Z,23.46
2023-01-29T23:00:58.098Z,23.45
2023-01-29T23:03:28.943Z,23.44
2023-01-29T23:06:01.297Z,23.42
2023-01-29T23:08:31.611Z,23.40
2023-01-29T23:11:14.839Z,23.37
2023-01-29T23:13:47.554Z,23.34
2023-01-29T23:16:20.429Z,23.32
2023-01-29T23:18:55.434Z,23.30
2023-01-29T23:21:29.407Z,23.29
2023-01-29T23:24:01.940Z,23.28
2023-01-29T23:26:49.422Z,23.26
2023-01-29T23:29:19.792Z,23.24
2023-01-29T23:31:50.708Z,23.25
2023-01-29T23:34:21.258Z,23.23
2023-01-29T23:36:53.140Z,23.21
2023-01-29T23:39:23.546Z,23.19
2023-01-29T23:41:53.622Z,23.16
2023-01-29T23:44:23.389Z,23.15
2023-01-29T23:46:54.195Z,23.14
2023-01-29T23:49:25.066Z,23.12
2023-01-29T23:51:56.330Z,23.11
2023-01-29T23:54:26.888Z,23.10
2023-01-29T23:56:57.477Z,23.08
2023-01-29T23:59:30.873Z,23.06
